sensor_id;sensor_type;location;lat;lon;timestamp;pressure;altitude;pressure_sealevel;temperature;humidity
14383;BME280;7275;50.328;8.720;2024-03-29T00:01:46;97938.66;;;12.21;45.72
14383;BME280;7275;50.328;8.720;2024-03-29T00:04:11;97932.28;;;12.23;45.65
14383;BME280;7275;50.328;8.720;2024-03-29T00:06:37;97924.59;;;12.20;45.52
14383;BME280;7275;50.328;8.720;2024-03-29T00:09:03;97920.84;;;12.23;45.33
14383;BME280;7275;50.328;8.720;2024-03-29T00:11:28;97909.75;;;12.18;45.67
14383;BME280;7275;50.328;8.720;2024-03-29T00:13:54;97904.34;;;12.19;45.51
14383;BME280;7275;50.328;8.720;2024-03-29T00:16:21;97894.19;;;12.13;45.79
14383;BME280;7275;50.328;8.720;2024-03-29T00:18:47;97887.09;;;12.14;45.43
14383;BME280;7275;50.328;8.720;2024-03-29T00:21:13;97882.41;;;12.17;45.36
14383;BME280;7275;50.328;8.720;2024-03-29T00:23:40;97876.78;;;12.22;45.39
14383;BME280;7275;50.328;8.720;2024-03-29T00:26:06;97874.88;;;12.24;45.36
14383;BME280;7275;50.328;8.720;2024-03-29T00:28:32;97881.09;;;12.23;45.53
14383;BME280;7275;50.328;8.720;2024-03-29T00:30:57;97880.03;;;12.25;45.46
14383;BME280;7275;50.328;8.720;2024-03-29T00:33:25;97877.63;;;12.22;45.24
14383;BME280;7275;50.328;8.720;2024-03-29T00:35:50;97871.16;;;12.26;45.11
14383;BME280;7275;50.328;8.720;2024-03-29T00:38:16;97869.78;;;12.21;45.55
14383;BME280;7275;50.328;8.720;2024-03-29T00:40:42;97875.00;;;12.22;45.71
14383;BME280;7275;50.328;8.720;2024-03-29T00:43:08;97863.66;;;12.20;45.54
14383;BME280;7275;50.328;8.720;2024-03-29T00:45:33;97867.13;;;12.21;45.77
14383;BME280;7275;50.328;8.720;2024-03-29T00:47:59;97858.38;;;12.20;45.57
14383;BME280;7275;50.328;8.720;2024-03-29T00:50:26;97861.00;;;12.20;45.68
14383;BME280;7275;50.328;8.720;2024-03-29T00:52:52;97860.78;;;12.23;45.79
14383;BME280;7275;50.328;8.720;2024-03-29T00:55:17;97856.94;;;12.27;45.50
14383;BME280;7275;50.328;8.720;2024-03-29T00:57:43;97863.31;;;12.25;45.58
14383;BME280;7275;50.328;8.720;2024-03-29T01:00:10;97867.66;;;12.26;45.48
14383;BME280;7275;50.328;8.720;2024-03-29T01:02:36;97871.97;;;12.27;45.39
14383;BME280;7275;50.328;8.720;2024-03-29T01:05:02;97872.72;;;12.29;45.54
14383;BME280;7275;50.328;8.720;2024-03-29T01:07:29;97866.59;;;12.28;45.57
14383;BME280;7275;50.328;8.720;2024-03-29T01:09:54;97869.63;;;12.35;45.62
14383;BME280;7275;50.328;8.720;2024-03-29T01:12:20;97877.59;;;12.35;45.87
14383;BME280;7275;50.328;8.720;2024-03-29T01:14:46;97882.19;;;12.44;45.69
14383;BME280;7275;50.328;8.720;2024-03-29T01:17:12;97884.84;;;12.44;45.78
14383;BME280;7275;50.328;8.720;2024-03-29T01:19:37;97864.28;;;12.47;45.81
14383;BME280;7275;50.328;8.720;2024-03-29T01:22:03;97876.69;;;12.58;45.70
14383;BME280;7275;50.328;8.720;2024-03-29T01:24:31;97879.03;;;12.62;46.00
14383;BME280;7275;50.328;8.720;2024-03-29T01:26:56;97869.78;;;12.68;45.57
14383;BME280;7275;50.328;8.720;2024-03-29T01:29:23;97850.13;;;12.70;45.63
14383;BME280;7275;50.328;8.720;2024-03-29T01:31:48;97850.50;;;12.77;45.51
14383;BME280;7275;50.328;8.720;2024-03-29T01:34:14;97847.50;;;12.81;45.26
14383;BME280;7275;50.328;8.720;2024-03-29T01:36:40;97852.81;;;12.81;45.51
14383;BME280;7275;50.328;8.720;2024-03-29T01:39:05;97844.66;;;12.84;45.51
14383;BME280;7275;50.328;8.720;2024-03-29T01:41:32;97846.09;;;12.89;45.45
14383;BME280;7275;50.328;8.720;2024-03-29T01:43:58;97846.81;;;12.91;45.49
14383;BME280;7275;50.328;8.720;2024-03-29T01:46:26;97835.25;;;12.92;45.30
14383;BME280;7275;50.328;8.720;2024-03-29T01:48:53;97844.78;;;12.94;45.21
14383;BME280;7275;50.328;8.720;2024-03-29T01:51:20;97842.00;;;12.96;45.12
14383;BME280;7275;50.328;8.720;2024-03-29T01:53:49;97841.91;;;12.97;45.16
14383;BME280;7275;50.328;8.720;2024-03-29T01:56:16;97827.53;;;13.00;45.02
14383;BME280;7275;50.328;8.720;2024-03-29T01:58:45;97828.25;;;13.02;44.83
14383;BME280;7275;50.328;8.720;2024-03-29T02:01:11;97806.31;;;13.00;44.99
14383;BME280;7275;50.328;8.720;2024-03-29T02:03:39;97791.88;;;13.04;44.80
14383;BME280;7275;50.328;8.720;2024-03-29T02:06:06;97799.00;;;13.03;44.99
14383;BME280;7275;50.328;8.720;2024-03-29T02:08:33;97790.47;;;13.11;44.57
14383;BME280;7275;50.328;8.720;2024-03-29T02:11:02;97771.91;;;13.11;44.42
14383;BME280;7275;50.328;8.720;2024-03-29T02:13:29;97766.59;;;13.11;44.54
14383;BME280;7275;50.328;8.720;2024-03-29T02:15:58;97765.75;;;13.10;44.56
14383;BME280;7275;50.328;8.720;2024-03-29T02:18:25;97772.38;;;13.16;44.13
14383;BME280;7275;50.328;8.720;2024-03-29T02:20:52;97769.13;;;13.23;43.85
14383;BME280;7275;50.328;8.720;2024-03-29T02:23:20;97767.31;;;13.24;43.92
14383;BME280;7275;50.328;8.720;2024-03-29T02:25:51;97791.34;;;13.22;43.83
14383;BME280;7275;50.328;8.720;2024-03-29T02:28:17;97792.88;;;13.25;43.88
14383;BME280;7275;50.328;8.720;2024-03-29T02:30:44;97804.84;;;13.30;43.79
14383;BME280;7275;50.328;8.720;2024-03-29T02:33:11;97815.31;;;13.32;43.78
14383;BME280;7275;50.328;8.720;2024-03-29T02:35:37;97815.19;;;13.33;43.57
14383;BME280;7275;50.328;8.720;2024-03-29T02:38:04;97822.44;;;13.31;43.65
14383;BME280;7275;50.328;8.720;2024-03-29T02:40:30;97816.03;;;13.34;43.62
14383;BME280;7275;50.328;8.720;2024-03-29T02:42:58;97824.72;;;13.36;43.53
14383;BME280;7275;50.328;8.720;2024-03-29T02:45:25;97822.06;;;13.36;43.50
14383;BME280;7275;50.328;8.720;2024-03-29T02:47:52;97819.53;;;13.34;43.37
14383;BME280;7275;50.328;8.720;2024-03-29T02:50:17;97816.91;;;13.34;43.32
14383;BME280;7275;50.328;8.720;2024-03-29T02:52:44;97819.53;;;13.34;43.17
14383;BME280;7275;50.328;8.720;2024-03-29T02:55:10;97827.50;;;13.34;43.37
14383;BME280;7275;50.328;8.720;2024-03-29T02:57:36;97819.28;;;13.37;43.32
14383;BME280;7275;50.328;8.720;2024-03-29T03:00:05;97821.84;;;13.39;43.07
14383;BME280;7275;50.328;8.720;2024-03-29T03:02:31;97821.59;;;13.42;42.81
14383;BME280;7275;50.328;8.720;2024-03-29T03:04:57;97825.31;;;13.39;43.03
14383;BME280;7275;50.328;8.720;2024-03-29T03:07:24;97830.19;;;13.45;42.79
14383;BME280;7275;50.328;8.720;2024-03-29T03:10:09;97834.63;;;13.45;42.91
14383;BME280;7275;50.328;8.720;2024-03-29T03:12:53;97825.69;;;13.46;42.75
14383;BME280;7275;50.328;8.720;2024-03-29T03:15:21;97824.47;;;13.50;42.62
14383;BME280;7275;50.328;8.720;2024-03-29T03:17:47;97824.97;;;13.55;42.78
14383;BME280;7275;50.328;8.720;2024-03-29T03:20:14;97821.25;;;13.57;42.48
14383;BME280;7275;50.328;8.720;2024-03-29T03:22:41;97814.44;;;13.64;42.25
14383;BME280;7275;50.328;8.720;2024-03-29T03:25:08;97814.59;;;13.63;42.39
14383;BME280;7275;50.328;8.720;2024-03-29T03:27:34;97804.56;;;13.67;42.38
14383;BME280;7275;50.328;8.720;2024-03-29T03:30:01;97795.50;;;13.69;42.25
14383;BME280;7275;50.328;8.720;2024-03-29T03:32:27;97800.31;;;13.75;42.22
14383;BME280;7275;50.328;8.720;2024-03-29T03:34:54;97801.03;;;13.77;42.35
14383;BME280;7275;50.328;8.720;2024-03-29T03:37:20;97812.16;;;13.82;42.25
14383;BME280;7275;50.328;8.720;2024-03-29T03:39:47;97803.31;;;13.82;42.15
14383;BME280;7275;50.328;8.720;2024-03-29T03:42:13;97807.19;;;13.78;42.30
14383;BME280;7275;50.328;8.720;2024-03-29T03:44:40;97854.78;;;13.81;42.29
14383;BME280;7275;50.328;8.720;2024-03-29T03:47:05;97858.25;;;13.81;42.52
14383;BME280;7275;50.328;8.720;2024-03-29T03:49:33;97834.75;;;13.77;42.61
14383;BME280;7275;50.328;8.720;2024-03-29T03:51:59;97824.94;;;13.77;42.49
14383;BME280;7275;50.328;8.720;2024-03-29T03:54:26;97818.81;;;13.77;42.39
14383;BME280;7275;50.328;8.720;2024-03-29T03:56:51;97822.06;;;13.80;42.28
14383;BME280;7275;50.328;8.720;2024-03-29T03:59:18;97811.56;;;13.79;42.33
14383;BME280;7275;50.328;8.720;2024-03-29T04:01:44;97819.13;;;13.83;42.49
14383;BME280;7275;50.328;8.720;2024-03-29T04:04:10;97816.47;;;13.83;42.40
14383;BME280;7275;50.328;8.720;2024-03-29T04:06:37;97807.78;;;13.81;42.35
14383;BME280;7275;50.328;8.720;2024-03-29T04:09:04;97810.34;;;13.83;42.34
14383;BME280;7275;50.328;8.720;2024-03-29T04:11:29;97802.97;;;13.86;42.36
14383;BME280;7275;50.328;8.720;2024-03-29T04:13:58;97807.28;;;13.87;42.41
14383;BME280;7275;50.328;8.720;2024-03-29T04:16:23;97800.19;;;13.88;42.32
14383;BME280;7275;50.328;8.720;2024-03-29T04:18:50;97794.16;;;13.86;42.35
14383;BME280;7275;50.328;8.720;2024-03-29T04:21:16;97805.63;;;13.86;42.42
14383;BME280;7275;50.328;8.720;2024-03-29T04:23:44;97826.28;;;13.83;42.50
14383;BME280;7275;50.328;8.720;2024-03-29T04:26:09;97826.00;;;13.86;42.62
14383;BME280;7275;50.328;8.720;2024-03-29T04:28:36;97820.47;;;13.78;42.81
14383;BME280;7275;50.328;8.720;2024-03-29T04:31:02;97806.00;;;13.71;43.10
14383;BME280;7275;50.328;8.720;2024-03-29T04:33:29;97801.53;;;13.71;42.94
14383;BME280;7275;50.328;8.720;2024-03-29T04:35:56;97804.81;;;13.63;43.54
14383;BME280;7275;50.328;8.720;2024-03-29T04:38:24;97800.72;;;13.59;43.71
14383;BME280;7275;50.328;8.720;2024-03-29T04:40:53;97791.19;;;13.57;43.69
14383;BME280;7275;50.328;8.720;2024-03-29T04:43:22;97768.38;;;13.54;43.84
14383;BME280;7275;50.328;8.720;2024-03-29T04:45:49;97766.09;;;13.50;44.06
14383;BME280;7275;50.328;8.720;2024-03-29T04:48:16;97772.50;;;13.47;44.13
14383;BME280;7275;50.328;8.720;2024-03-29T04:50:42;97778.63;;;13.48;44.15
14383;BME280;7275;50.328;8.720;2024-03-29T04:53:09;97771.78;;;13.45;44.39
14383;BME280;7275;50.328;8.720;2024-03-29T04:55:36;97773.47;;;13.46;44.48
14383;BME280;7275;50.328;8.720;2024-03-29T04:58:04;97768.28;;;13.45;44.36
14383;BME280;7275;50.328;8.720;2024-03-29T05:00:30;97760.31;;;13.45;44.54
14383;BME280;7275;50.328;8.720;2024-03-29T05:02:57;97755.09;;;13.43;44.66
14383;BME280;7275;50.328;8.720;2024-03-29T05:05:24;97751.72;;;13.41;44.83
14383;BME280;7275;50.328;8.720;2024-03-29T05:07:50;97744.63;;;13.42;44.76
14383;BME280;7275;50.328;8.720;2024-03-29T05:10:17;97733.41;;;13.38;45.05
14383;BME280;7275;50.328;8.720;2024-03-29T05:12:44;97738.00;;;13.36;45.04
14383;BME280;7275;50.328;8.720;2024-03-29T05:15:12;97749.94;;;13.31;45.42
14383;BME280;7275;50.328;8.720;2024-03-29T05:17:38;97761.31;;;13.33;45.44
14383;BME280;7275;50.328;8.720;2024-03-29T05:20:07;97759.47;;;13.33;45.38
14383;BME280;7275;50.328;8.720;2024-03-29T05:22:34;97779.50;;;13.26;45.73
14383;BME280;7275;50.328;8.720;2024-03-29T05:25:01;97775.41;;;13.22;45.58
14383;BME280;7275;50.328;8.720;2024-03-29T05:27:28;97792.28;;;13.21;45.75
14383;BME280;7275;50.328;8.720;2024-03-29T05:29:55;97795.91;;;13.20;45.69
14383;BME280;7275;50.328;8.720;2024-03-29T05:32:23;97805.81;;;13.18;45.83
14383;BME280;7275;50.328;8.720;2024-03-29T05:34:50;97815.56;;;13.18;45.84
14383;BME280;7275;50.328;8.720;2024-03-29T05:37:16;97817.34;;;13.17;45.91
14383;BME280;7275;50.328;8.720;2024-03-29T05:39:43;97815.44;;;13.19;45.75
14383;BME280;7275;50.328;8.720;2024-03-29T05:42:10;97815.22;;;13.22;45.80
14383;BME280;7275;50.328;8.720;2024-03-29T05:44:37;97820.25;;;13.25;45.94
14383;BME280;7275;50.328;8.720;2024-03-29T05:47:04;97814.00;;;13.26;45.90
14383;BME280;7275;50.328;8.720;2024-03-29T05:49:33;97816.25;;;13.31;45.90
14383;BME280;7275;50.328;8.720;2024-03-29T05:51:59;97823.78;;;13.37;45.86
14383;BME280;7275;50.328;8.720;2024-03-29T05:54:26;97818.22;;;13.40;45.92
14383;BME280;7275;50.328;8.720;2024-03-29T05:56:52;97809.31;;;13.41;45.86
14383;BME280;7275;50.328;8.720;2024-03-29T05:59:20;97817.00;;;13.44;45.92
14383;BME280;7275;50.328;8.720;2024-03-29T06:01:46;97830.03;;;13.47;46.02
14383;BME280;7275;50.328;8.720;2024-03-29T06:04:13;97826.41;;;13.48;46.07
14383;BME280;7275;50.328;8.720;2024-03-29T06:06:42;97840.41;;;13.50;46.29
14383;BME280;7275;50.328;8.720;2024-03-29T06:09:09;97844.63;;;13.52;46.14
14383;BME280;7275;50.328;8.720;2024-03-29T06:11:36;97843.78;;;13.52;46.37
14383;BME280;7275;50.328;8.720;2024-03-29T06:14:02;97842.84;;;13.53;46.36
14383;BME280;7275;50.328;8.720;2024-03-29T06:16:46;97858.75;;;13.53;46.47
14383;BME280;7275;50.328;8.720;2024-03-29T06:19:31;97859.72;;;13.52;46.31
14383;BME280;7275;50.328;8.720;2024-03-29T06:21:59;97865.75;;;13.54;46.50
14383;BME280;7275;50.328;8.720;2024-03-29T06:24:25;97861.88;;;13.58;46.62
14383;BME280;7275;50.328;8.720;2024-03-29T06:26:52;97851.38;;;13.56;46.72
14383;BME280;7275;50.328;8.720;2024-03-29T06:29:19;97858.13;;;13.60;46.50
14383;BME280;7275;50.328;8.720;2024-03-29T06:31:46;97846.78;;;13.58;46.86
14383;BME280;7275;50.328;8.720;2024-03-29T06:34:12;97859.84;;;13.61;46.63
14383;BME280;7275;50.328;8.720;2024-03-29T06:36:39;97856.09;;;13.64;46.83
14383;BME280;7275;50.328;8.720;2024-03-29T06:39:07;97863.69;;;13.69;46.69
14383;BME280;7275;50.328;8.720;2024-03-29T06:41:34;97858.28;;;13.70;46.89
14383;BME280;7275;50.328;8.720;2024-03-29T06:44:00;97858.50;;;13.67;46.80
14383;BME280;7275;50.328;8.720;2024-03-29T06:46:27;97853.06;;;13.69;46.83
14383;BME280;7275;50.328;8.720;2024-03-29T06:48:54;97850.66;;;13.66;47.02
14383;BME280;7275;50.328;8.720;2024-03-29T06:51:20;97857.06;;;13.63;47.34
14383;BME280;7275;50.328;8.720;2024-03-29T06:53:48;97860.31;;;13.67;47.34
14383;BME280;7275;50.328;8.720;2024-03-29T06:56:16;97858.50;;;13.67;47.32
14383;BME280;7275;50.328;8.720;2024-03-29T06:58:42;97859.72;;;13.63;47.71
14383;BME280;7275;50.328;8.720;2024-03-29T07:01:09;97849.34;;;13.60;47.76
14383;BME280;7275;50.328;8.720;2024-03-29T07:03:35;97836.69;;;13.63;47.80
14383;BME280;7275;50.328;8.720;2024-03-29T07:06:02;97856.94;;;13.64;47.82
14383;BME280;7275;50.328;8.720;2024-03-29T07:08:29;97854.03;;;13.68;47.94
14383;BME280;7275;50.328;8.720;2024-03-29T07:10:59;97865.25;;;13.71;48.08
14383;BME280;7275;50.328;8.720;2024-03-29T07:13:29;97861.38;;;13.75;48.03
14383;BME280;7275;50.328;8.720;2024-03-29T07:15:56;97859.59;;;13.76;48.43
14383;BME280;7275;50.328;8.720;2024-03-29T07:18:23;97866.34;;;13.80;48.54
14383;BME280;7275;50.328;8.720;2024-03-29T07:20:50;97865.13;;;13.73;48.92
14383;BME280;7275;50.328;8.720;2024-03-29T07:23:17;97867.69;;;13.74;48.88
14383;BME280;7275;50.328;8.720;2024-03-29T07:25:44;97874.66;;;13.75;48.94
14383;BME280;7275;50.328;8.720;2024-03-29T07:28:11;97880.34;;;13.82;48.92
14383;BME280;7275;50.328;8.720;2024-03-29T07:30:41;97869.00;;;13.80;49.32
14383;BME280;7275;50.328;8.720;2024-03-29T07:33:09;97885.53;;;13.83;49.35
14383;BME280;7275;50.328;8.720;2024-03-29T07:35:40;97882.78;;;13.85;49.40
14383;BME280;7275;50.328;8.720;2024-03-29T07:38:07;97879.00;;;13.87;49.38
14383;BME280;7275;50.328;8.720;2024-03-29T07:40:34;97890.75;;;13.85;49.98
14383;BME280;7275;50.328;8.720;2024-03-29T07:43:01;97887.81;;;13.88;49.49
14383;BME280;7275;50.328;8.720;2024-03-29T07:45:28;97892.63;;;13.94;49.49
14383;BME280;7275;50.328;8.720;2024-03-29T07:47:56;97898.56;;;13.97;49.80
14383;BME280;7275;50.328;8.720;2024-03-29T07:50:23;97891.44;;;13.98;50.00
14383;BME280;7275;50.328;8.720;2024-03-29T07:52:50;97893.34;;;14.07;49.89
14383;BME280;7275;50.328;8.720;2024-03-29T07:55:17;97885.25;;;14.08;49.82
14383;BME280;7275;50.328;8.720;2024-03-29T07:57:44;97880.56;;;14.12;49.87
14383;BME280;7275;50.328;8.720;2024-03-29T08:00:13;97883.56;;;14.18;50.08
14383;BME280;7275;50.328;8.720;2024-03-29T08:02:39;97882.09;;;14.25;50.04
14383;BME280;7275;50.328;8.720;2024-03-29T08:05:08;97886.09;;;14.31;50.43
14383;BME280;7275;50.328;8.720;2024-03-29T08:07:34;97873.66;;;14.31;50.32
14383;BME280;7275;50.328;8.720;2024-03-29T08:10:01;97868.69;;;14.38;50.30
14383;BME280;7275;50.328;8.720;2024-03-29T08:12:27;97861.28;;;14.41;50.20
14383;BME280;7275;50.328;8.720;2024-03-29T08:14:54;97862.75;;;14.46;50.18
14383;BME280;7275;50.328;8.720;2024-03-29T08:17:21;97851.47;;;14.53;50.05
14383;BME280;7275;50.328;8.720;2024-03-29T08:19:47;97858.22;;;14.57;50.18
14383;BME280;7275;50.328;8.720;2024-03-29T08:22:15;97847.78;;;14.65;50.15
14383;BME280;7275;50.328;8.720;2024-03-29T08:24:42;97850.22;;;14.68;49.98
14383;BME280;7275;50.328;8.720;2024-03-29T08:27:09;97855.88;;;14.75;50.07
14383;BME280;7275;50.328;8.720;2024-03-29T08:29:36;97858.97;;;14.80;50.12
14383;BME280;7275;50.328;8.720;2024-03-29T08:32:03;97852.56;;;14.82;50.05
14383;BME280;7275;50.328;8.720;2024-03-29T08:34:31;97854.22;;;14.83;50.28
14383;BME280;7275;50.328;8.720;2024-03-29T08:37:00;97860.38;;;14.84;50.22
14383;BME280;7275;50.328;8.720;2024-03-29T08:39:30;97870.78;;;14.87;50.40
14383;BME280;7275;50.328;8.720;2024-03-29T08:41:57;97868.75;;;14.79;50.86
14383;BME280;7275;50.328;8.720;2024-03-29T08:44:23;97867.53;;;14.83;50.68
14383;BME280;7275;50.328;8.720;2024-03-29T08:46:50;97868.75;;;14.79;51.15
14383;BME280;7275;50.328;8.720;2024-03-29T08:49:17;97864.88;;;14.83;50.89
14383;BME280;7275;50.328;8.720;2024-03-29T08:51:44;97871.75;;;14.86;50.77
14383;BME280;7275;50.328;8.720;2024-03-29T08:54:11;97891.22;;;14.86;50.75
14383;BME280;7275;50.328;8.720;2024-03-29T08:56:39;97873.97;;;14.81;51.06
14383;BME280;7275;50.328;8.720;2024-03-29T08:59:06;97875.25;;;14.86;50.89
14383;BME280;7275;50.328;8.720;2024-03-29T09:01:36;97884.91;;;14.87;51.11
14383;BME280;7275;50.328;8.720;2024-03-29T09:04:03;97893.38;;;14.92;51.12
14383;BME280;7275;50.328;8.720;2024-03-29T09:06:32;97900.69;;;15.00;51.12
14383;BME280;7275;50.328;8.720;2024-03-29T09:08:59;97905.78;;;15.03;51.15
14383;BME280;7275;50.328;8.720;2024-03-29T09:11:25;97905.53;;;15.06;51.00
14383;BME280;7275;50.328;8.720;2024-03-29T09:13:53;97922.59;;;15.03;51.19
14383;BME280;7275;50.328;8.720;2024-03-29T09:16:22;97916.88;;;15.08;51.08
14383;BME280;7275;50.328;8.720;2024-03-29T09:18:48;97908.28;;;15.04;51.51
14383;BME280;7275;50.328;8.720;2024-03-29T09:21:15;97922.06;;;15.09;51.41
14383;BME280;7275;50.328;8.720;2024-03-29T09:23:42;97922.31;;;15.06;51.59
14383;BME280;7275;50.328;8.720;2024-03-29T09:26:08;97928.63;;;15.05;51.43
14383;BME280;7275;50.328;8.720;2024-03-29T09:28:35;97939.00;;;15.08;51.57
14383;BME280;7275;50.328;8.720;2024-03-29T09:31:03;97937.94;;;15.00;52.27
14383;BME280;7275;50.328;8.720;2024-03-29T09:33:30;97938.41;;;15.05;52.17
14383;BME280;7275;50.328;8.720;2024-03-29T09:35:57;97934.53;;;15.09;51.96
14383;BME280;7275;50.328;8.720;2024-03-29T09:38:24;97946.75;;;15.11;51.95
14383;BME280;7275;50.328;8.720;2024-03-29T09:40:58;97949.34;;;15.23;51.81
14383;BME280;7275;50.328;8.720;2024-03-29T09:43:28;97939.41;;;15.25;52.15
14383;BME280;7275;50.328;8.720;2024-03-29T09:45:55;97933.44;;;15.32;52.01
14383;BME280;7275;50.328;8.720;2024-03-29T09:48:25;97935.44;;;15.40;52.58
14383;BME280;7275;50.328;8.720;2024-03-29T09:50:53;97936.91;;;15.44;52.63
14383;BME280;7275;50.328;8.720;2024-03-29T09:53:22;97935.69;;;15.48;52.65
14383;BME280;7275;50.328;8.720;2024-03-29T09:55:49;97940.56;;;15.43;52.57
14383;BME280;7275;50.328;8.720;2024-03-29T09:58:17;97952.38;;;15.50;52.41
14383;BME280;7275;50.328;8.720;2024-03-29T10:00:44;97944.41;;;15.50;52.25
14383;BME280;7275;50.328;8.720;2024-03-29T10:03:11;97945.81;;;15.54;52.25
14383;BME280;7275;50.328;8.720;2024-03-29T10:05:40;97947.94;;;15.39;52.72
14383;BME280;7275;50.328;8.720;2024-03-29T10:08:07;97950.44;;;15.52;52.18
14383;BME280;7275;50.328;8.720;2024-03-29T10:10:33;97947.09;;;15.59;51.98
14383;BME280;7275;50.328;8.720;2024-03-29T10:13:00;97958.28;;;15.53;52.34
14383;BME280;7275;50.328;8.720;2024-03-29T10:15:28;97949.19;;;15.56;52.27
14383;BME280;7275;50.328;8.720;2024-03-29T10:17:58;97961.66;;;15.55;52.58
14383;BME280;7275;50.328;8.720;2024-03-29T10:20:25;97949.81;;;15.48;52.95
14383;BME280;7275;50.328;8.720;2024-03-29T10:22:55;97959.88;;;15.65;52.47
14383;BME280;7275;50.328;8.720;2024-03-29T10:25:27;97963.03;;;15.50;53.56
14383;BME280;7275;50.328;8.720;2024-03-29T10:27:54;97971.06;;;15.59;53.18
14383;BME280;7275;50.328;8.720;2024-03-29T10:30:21;97971.97;;;15.49;53.15
14383;BME280;7275;50.328;8.720;2024-03-29T10:32:47;97973.78;;;15.48;53.31
14383;BME280;7275;50.328;8.720;2024-03-29T10:35:14;97981.41;;;15.42;53.26
14383;BME280;7275;50.328;8.720;2024-03-29T10:37:41;97971.03;;;15.39;53.62
14383;BME280;7275;50.328;8.720;2024-03-29T10:40:11;97959.53;;;15.49;53.34
14383;BME280;7275;50.328;8.720;2024-03-29T10:42:41;97963.59;;;15.53;53.39
14383;BME280;7275;50.328;8.720;2024-03-29T10:45:08;97969.47;;;15.47;53.94
14383;BME280;7275;50.328;8.720;2024-03-29T10:47:36;97962.78;;;15.42;54.10
14383;BME280;7275;50.328;8.720;2024-03-29T10:50:03;97969.25;;;15.60;53.73
14383;BME280;7275;50.328;8.720;2024-03-29T10:52:31;97958.53;;;15.50;54.41
14383;BME280;7275;50.328;8.720;2024-03-29T10:54:58;97965.28;;;15.54;54.20
14383;BME280;7275;50.328;8.720;2024-03-29T10:57:27;97966.69;;;15.58;54.24
14383;BME280;7275;50.328;8.720;2024-03-29T11:00:00;97966.66;;;15.69;54.18
14383;BME280;7275;50.328;8.720;2024-03-29T11:02:35;97973.06;;;15.67;54.07
14383;BME280;7275;50.328;8.720;2024-03-29T11:05:09;97962.69;;;15.43;54.94
14383;BME280;7275;50.328;8.720;2024-03-29T11:07:39;97944.47;;;15.69;54.37
14383;BME280;7275;50.328;8.720;2024-03-29T11:10:09;97952.78;;;15.75;54.18
14383;BME280;7275;50.328;8.720;2024-03-29T11:12:46;97950.28;;;15.74;54.20
14383;BME280;7275;50.328;8.720;2024-03-29T11:15:20;97946.94;;;15.81;53.67
14383;BME280;7275;50.328;8.720;2024-03-29T11:17:48;97938.66;;;15.75;52.80
14383;BME280;7275;50.328;8.720;2024-03-29T11:20:16;97942.75;;;15.79;52.98
14383;BME280;7275;50.328;8.720;2024-03-29T11:22:50;97947.50;;;15.55;53.92
14383;BME280;7275;50.328;8.720;2024-03-29T11:25:16;97950.09;;;15.66;53.96
14383;BME280;7275;50.328;8.720;2024-03-29T11:27:44;97944.75;;;15.66;54.03
14383;BME280;7275;50.328;8.720;2024-03-29T11:30:16;97932.28;;;15.66;54.07
14383;BME280;7275;50.328;8.720;2024-03-29T11:32:43;97945.28;;;15.60;54.48
14383;BME280;7275;50.328;8.720;2024-03-29T11:35:14;97953.66;;;15.76;53.94
14383;BME280;7275;50.328;8.720;2024-03-29T11:37:41;97945.66;;;15.76;53.65
14383;BME280;7275;50.328;8.720;2024-03-29T11:40:10;97959.22;;;15.73;53.64
14383;BME280;7275;50.328;8.720;2024-03-29T11:42:46;97961.59;;;15.66;53.93
14383;BME280;7275;50.328;8.720;2024-03-29T11:45:13;97944.94;;;15.74;53.50
14383;BME280;7275;50.328;8.720;2024-03-29T11:47:40;97952.78;;;15.75;53.53
14383;BME280;7275;50.328;8.720;2024-03-29T11:50:08;97948.88;;;15.79;53.32
14383;BME280;7275;50.328;8.720;2024-03-29T11:52:38;97965.16;;;15.76;53.45
14383;BME280;7275;50.328;8.720;2024-03-29T11:55:05;97990.56;;;15.80;53.53
14383;BME280;7275;50.328;8.720;2024-03-29T11:57:32;98001.34;;;15.79;53.60
14383;BME280;7275;50.328;8.720;2024-03-29T12:00:01;98013.81;;;15.78;53.43
14383;BME280;7275;50.328;8.720;2024-03-29T12:02:28;98009.19;;;15.80;53.28
14383;BME280;7275;50.328;8.720;2024-03-29T12:04:55;98003.31;;;15.77;53.58
14383;BME280;7275;50.328;8.720;2024-03-29T12:07:21;97997.31;;;15.84;53.68
14383;BME280;7275;50.328;8.720;2024-03-29T12:09:48;97987.59;;;15.83;53.94
14383;BME280;7275;50.328;8.720;2024-03-29T12:12:15;97983.13;;;15.84;53.59
14383;BME280;7275;50.328;8.720;2024-03-29T12:14:43;97986.84;;;15.72;54.61
14383;BME280;7275;50.328;8.720;2024-03-29T12:17:11;97985.09;;;15.82;54.04
14383;BME280;7275;50.328;8.720;2024-03-29T12:19:37;97973.47;;;15.83;54.37
14383;BME280;7275;50.328;8.720;2024-03-29T12:22:07;97976.66;;;15.77;55.03
14383;BME280;7275;50.328;8.720;2024-03-29T12:24:34;97976.38;;;15.80;54.93
14383;BME280;7275;50.328;8.720;2024-03-29T12:27:01;97982.41;;;15.82;55.03
14383;BME280;7275;50.328;8.720;2024-03-29T12:29:28;97974.75;;;15.88;55.01
14383;BME280;7275;50.328;8.720;2024-03-29T12:31:58;97963.06;;;15.80;55.25
14383;BME280;7275;50.328;8.720;2024-03-29T12:34:26;97958.06;;;15.86;54.96
14383;BME280;7275;50.328;8.720;2024-03-29T12:36:53;97965.06;;;15.87;54.89
14383;BME280;7275;50.328;8.720;2024-03-29T12:39:21;97968.31;;;15.91;54.81
14383;BME280;7275;50.328;8.720;2024-03-29T12:41:47;97965.06;;;15.87;55.01
14383;BME280;7275;50.328;8.720;2024-03-29T12:44:14;97957.78;;;15.89;54.97
14383;BME280;7275;50.328;8.720;2024-03-29T12:46:41;97958.22;;;15.94;54.88
14383;BME280;7275;50.328;8.720;2024-03-29T12:49:10;97957.13;;;15.97;54.86
14383;BME280;7275;50.328;8.720;2024-03-29T12:51:39;97981.25;;;15.95;55.05
14383;BME280;7275;50.328;8.720;2024-03-29T12:54:07;98007.47;;;16.00;55.08
14383;BME280;7275;50.328;8.720;2024-03-29T12:56:35;98017.31;;;15.99;55.20
14383;BME280;7275;50.328;8.720;2024-03-29T12:59:03;98026.44;;;16.07;54.91
14383;BME280;7275;50.328;8.720;2024-03-29T13:01:31;98023.03;;;15.95;55.39
14383;BME280;7275;50.328;8.720;2024-03-29T13:03:57;98021.34;;;15.94;55.48
14383;BME280;7275;50.328;8.720;2024-03-29T13:06:24;98017.75;;;16.05;55.02
14383;BME280;7275;50.328;8.720;2024-03-29T13:08:52;98037.97;;;16.07;54.99
14383;BME280;7275;50.328;8.720;2024-03-29T13:11:22;98034.72;;;16.04;55.05